Time;durP1;ratioP1;P1;durP2;ratioP2;P2;SDS_P1;SDS_P2;PMS_P1;PMS_P2;Temp;Humidity;BMP_temperature;BMP_pressure;BME280_temperature;BME280_humidity;BME280_pressure;Samples;Min_cycle;Max_cycle;Signal;HPM_P1;HPM_P2
2022/10/16 08:45:48;;;;;;;1.93;1.73;;;;;;;17.67;100.00;98982.81;5166475;27;20930;-77
2022/10/16 08:48:23;;;;;;;1.93;1.37;;;;;;;18.20;100.00;98984.13;5150613;27;39896;-79
2022/10/16 08:50:54;;;;;;;4.37;1.83;;;;;;;18.85;100.00;98990.59;5146428;27;41814;-80
2022/10/16 08:53:29;;;;;;;2.90;1.40;;;;;;;19.46;100.00;98986.56;5131850;27;42342;-79
2022/10/16 08:55:58;;;;;;;1.40;1.30;;;;;;;20.05;98.55;98980.69;5149637;27;41222;-83
2022/10/16 08:58:29;;;;;;;2.27;1.30;;;;;;;20.58;94.74;98990.63;5132150;27;39687;-79
2022/10/16 09:01:02;;;;;;;1.33;1.07;;;;;;;20.75;91.59;98985.25;5149515;27;42212;-82
2022/10/16 09:03:44;;;;;;;2.63;1.13;;;;;;;20.89;89.79;98991.06;5146305;27;43719;-78
2022/10/16 09:06:32;;;;;;;1.53;1.10;;;;;;;20.99;88.52;99000.72;5132178;27;42278;-83
2022/10/16 09:09:14;;;;;;;1.07;0.97;;;;;;;21.15;87.29;99000.78;5147721;27;39866;-82
2022/10/16 09:11:48;;;;;;;2.27;1.20;;;;;;;21.33;86.41;98999.94;5132078;27;40492;-80
2022/10/16 09:14:41;;;;;;;2.53;1.40;;;;;;;21.40;85.70;98998.25;5149026;27;42932;-80
2022/10/16 09:17:27;;;;;;;1.23;1.20;;;;;;;21.51;84.10;99014.19;5147461;27;42232;-78
2022/10/16 09:20:14;;;;;;;1.10;1.10;;;;;;;21.49;83.13;99021.56;5132224;27;40087;-79
2022/10/16 09:22:42;;;;;;;1.47;1.07;;;;;;;21.38;83.53;99001.16;5131978;27;40830;-78
2022/10/16 09:25:13;;;;;;;2.20;1.40;;;;;;;21.36;82.65;99010.38;5150147;27;42678;-80
2022/10/16 09:27:42;;;;;;;5.03;1.40;;;;;;;21.53;81.92;99028.31;5149615;27;42230;-79
2022/10/16 09:30:15;;;;;;;1.20;1.10;;;;;;;21.71;80.75;99030.94;5147571;27;39994;-82
2022/10/16 09:32:48;;;;;;;4.43;1.50;;;;;;;21.80;80.59;99025.41;5144276;27;41488;-81
2022/10/16 09:35:18;;;;;;;2.70;1.40;;;;;;;21.86;80.50;99034.69;5149509;27;42734;-81
2022/10/16 09:37:49;;;;;;;2.10;1.27;;;;;;;21.84;79.92;99032.16;5146002;27;42129;-82
2022/10/16 09:40:27;;;;;;;1.30;1.20;;;;;;;21.79;79.62;99034.50;5149168;27;40213;-80
2022/10/16 09:43:04;;;;;;;1.40;1.30;;;;;;;21.50;80.52;99007.09;5130578;27;40525;-80
2022/10/16 09:45:32;;;;;;;1.93;1.20;;;;;;;21.41;80.58;99032.28;5144628;27;43770;-80
2022/10/16 09:48:11;;;;;;;2.73;1.07;;;;;;;21.26;81.30;99032.06;5130186;27;41333;-81
2022/10/16 09:50:39;;;;;;;3.10;1.20;;;;;;;21.23;81.53;99036.91;5147455;27;41156;-79
2022/10/16 09:53:12;;;;;;;1.20;1.10;;;;;;;21.20;82.03;99042.63;5148459;27;41687;-85
2022/10/16 09:55:49;;;;;;;4.60;1.20;;;;;;;20.99;81.82;99014.19;5123880;27;43527;-84
2022/10/16 09:58:17;;;;;;;2.73;1.50;;;;;;;21.22;82.30;99051.38;5133426;27;43034;-80
2022/10/16 10:00:51;;;;;;;1.20;1.10;;;;;;;21.23;82.37;99053.06;5117655;27;40212;-84
2022/10/16 10:03:36;;;;;;;1.50;1.03;;;;;;;21.14;81.39;99055.66;5134201;27;40990;-82
2022/10/16 10:06:16;;;;;;;1.83;1.10;;;;;;;20.94;81.46;99039.88;5134425;27;43595;-80
2022/10/16 10:09:07;;;;;;;1.50;1.00;;;;;;;21.00;82.43;99063.50;5117319;27;42925;-80
2022/10/16 10:11:47;;;;;;;1.13;1.03;;;;;;;21.00;82.65;99063.50;5132499;27;40770;-81
2022/10/16 10:14:28;;;;;;;1.93;1.27;;;;;;;21.03;82.54;99066.69;5134199;27;41025;-81
2022/10/16 10:17:10;;;;;;;1.70;1.40;;;;;;;21.04;82.43;99068.38;5129397;27;43558;-78
2022/10/16 10:19:48;;;;;;;3.90;1.23;;;;;;;20.94;82.42;99061.41;5132783;27;42016;-80
2022/10/16 10:22:29;;;;;;;2.40;1.20;;;;;;;21.02;82.91;99081.16;5130596;27;40730;-80
2022/10/16 10:25:25;;;;;;;2.47;1.43;;;;;;;20.97;83.06;99075.41;5133386;27;41835;-78
2022/10/16 10:28:19;;;;;;;2.00;1.20;;;;;;;20.80;83.27;99068.19;5131409;27;42416;-79
2022/10/16 10:30:57;;;;;;;1.40;1.30;;;;;;;20.74;83.57;99101.13;5102878;27;42302;-80
2022/10/16 10:33:32;;;;;;;1.53;1.20;;;;;;;20.55;83.88;99101.25;5130575;27;39811;-80
2022/10/16 10:36:13;;;;;;;1.97;1.23;;;;;;;20.34;84.18;99125.75;5130272;27;41735;-77
2022/10/16 10:38:49;;;;;;;4.53;1.40;;;;;;;20.12;84.56;99137.75;5131817;27;42591;-79
2022/10/16 10:41:55;;;;;;;2.07;1.10;;;;;;;19.95;85.23;99100.91;5116194;27;41038;-79
2022/10/16 10:44:38;;;;;;;1.90;1.50;;;;;;;19.84;85.34;99112.69;5132508;27;40938;-79
2022/10/16 10:47:15;;;;;;;1.53;1.43;;;;;;;19.82;85.50;99103.09;5132659;27;41895;-81
2022/10/16 10:49:56;;;;;;;1.40;1.30;;;;;;;20.00;85.32;99106.69;5133761;27;42160;-78
2022/10/16 10:52:43;;;;;;;3.60;1.43;;;;;;;20.28;85.13;99102.13;5133227;27;42194;-78
2022/10/16 10:55:21;;;;;;;2.23;1.47;;;;;;;20.57;84.72;99089.34;5133398;27;39891;-77
2022/10/16 10:58:04;;;;;;;1.40;1.30;;;;;;;21.04;84.23;99084.53;5115682;27;41511;-79
2022/10/16 11:00:43;;;;;;;1.60;1.37;;;;;;;21.98;83.59;99086.50;5115562;27;42000;-79
2022/10/16 11:03:19;;;;;;;2.60;1.30;;;;;;;23.28;80.42;99083.00;5132233;27;40771;-80
2022/10/16 11:05:52;;;;;;;2.97;1.27;;;;;;;24.09;76.78;99095.47;5130505;27;40909;-77
2022/10/16 11:08:27;;;;;;;2.23;1.23;;;;;;;25.02;74.21;99096.28;5130065;27;41974;-78
2022/10/16 11:10:59;;;;;;;1.73;1.30;;;;;;;25.95;71.69;99082.31;5130553;27;43798;-79
2022/10/16 11:13:35;;;;;;;1.47;1.30;;;;;;;26.99;68.02;99097.31;5132352;27;41335;-79
2022/10/16 11:16:12;;;;;;;2.13;1.10;;;;;;;27.95;64.55;99097.63;5115524;27;38792;-82
2022/10/16 11:18:50;;;;;;;1.53;1.43;;;;;;;29.82;60.37;99118.59;5115480;27;41967;-81
2022/10/16 11:21:20;;;;;;;1.50;1.03;;;;;;;30.85;55.62;99131.31;5129243;27;43756;-81
2022/10/16 11:23:55;;;;;;;2.33;1.03;;;;;;;32.77;49.86;99142.16;5115115;27;42495;-81
2022/10/16 11:26:28;;;;;;;1.23;1.15;;;;;;;34.71;44.82;99165.03;5130435;27;39841;-81
2022/10/16 11:28:58;;;;;;;2.78;0.90;;;;;;;36.30;41.51;99167.53;5130502;27;42731;-81
2022/10/16 11:31:33;;;;;;;1.23;0.90;;;;;;;37.47;39.54;99155.06;5114798;27;43355;-83
2022/10/16 11:34:07;;;;;;;1.30;0.90;;;;;;;38.93;35.53;99184.78;5131685;27;43560;-81
2022/10/16 11:36:40;;;;;;;1.73;0.77;;;;;;;39.75;34.16;99181.06;5115213;27;40102;-82
2022/10/16 11:39:21;;;;;;;1.35;1.00;;;;;;;40.86;30.89;99177.22;5131909;27;41632;-82
2022/10/16 11:41:51;;;;;;;1.20;1.08;;;;;;;41.83;31.01;99177.38;5129095;27;43037;-80
2022/10/16 11:44:35;;;;;;;1.10;1.00;;;;;;;42.30;29.37;99185.00;5131737;27;41499;-80
2022/10/16 11:47:12;;;;;;;1.30;0.75;;;;;;;42.79;29.38;99173.56;5130033;27;40703;-83
2022/10/16 11:49:42;;;;;;;1.10;1.00;;;;;;;42.81;28.26;99182.47;5131407;27;42406;-83
2022/10/16 11:52:18;;;;;;;1.58;0.90;;;;;;;42.42;29.03;99173.47;5131874;27;42560;-81
2022/10/16 11:54:52;;;;;;;1.67;0.98;;;;;;;42.34;29.20;99168.53;5131195;27;43158;-81
2022/10/16 11:57:24;;;;;;;1.15;1.00;;;;;;;42.37;28.02;99165.16;5128824;27;40854;-83
2022/10/16 11:59:56;;;;;;;1.58;0.82;;;;;;;43.24;27.22;99176.88;5114565;27;40814;-81
2022/10/16 12:02:40;;;;;;;0.80;0.80;;;;;;;43.74;26.07;99133.41;5128776;27;42377;-83
2022/10/16 12:05:19;;;;;;;2.95;0.82;;;;;;;44.48;25.45;99175.28;5131897;27;43102;-81
2022/10/16 12:07:53;;;;;;;0.93;0.73;;;;;;;45.10;25.21;99170.88;5114722;27;40035;-84
2022/10/16 12:10:27;;;;;;;0.77;0.77;;;;;;;45.62;24.46;99166.59;5114652;27;41462;-83
2022/10/16 12:12:56;;;;;;;1.92;1.00;;;;;;;45.96;23.41;99166.00;5128360;27;42586;-84
2022/10/16 12:15:26;;;;;;;1.63;0.80;;;;;;;46.32;23.28;99163.03;5114410;27;41053;-86
2022/10/16 12:17:55;;;;;;;0.98;0.70;;;;;;;46.63;23.03;99156.53;5113765;27;39120;-80
2022/10/16 12:20:30;;;;;;;1.33;0.80;;;;;;;46.44;23.28;99154.84;5132662;27;42285;-81
2022/10/16 12:23:00;;;;;;;1.50;0.85;;;;;;;44.80;24.58;99138.84;5128094;27;42723;-78
2022/10/16 12:25:31;;;;;;;1.00;0.80;;;;;;;43.38;26.21;99129.53;5131499;27;42479;-78
2022/10/16 12:28:02;;;;;;;1.70;1.42;;;;;;;41.59;27.76;99111.41;5130954;27;40022;-83
2022/10/16 12:30:33;;;;;;;1.88;1.20;;;;;;;39.85;29.52;99103.41;5131746;27;41835;-80
2022/10/16 12:33:03;;;;;;;3.13;1.25;;;;;;;38.50;30.71;99105.69;5130891;27;42804;-81
2022/10/16 12:35:34;;;;;;;0.90;0.90;;;;;;;37.49;32.36;99097.63;5131355;27;41764;-80
2022/10/16 12:38:18;;;;;;;1.20;1.00;;;;;;;36.06;34.08;99075.06;5129223;27;40174;-85
2022/10/16 12:40:55;;;;;;;1.20;1.20;;;;;;;35.19;35.58;99078.41;5131108;27;42687;-84
2022/10/16 12:43:36;;;;;;;1.93;1.00;;;;;;;34.35;37.04;99067.19;5113123;27;43609;-83
2022/10/16 12:46:06;;;;;;;1.03;1.00;;;;;;;33.78;37.27;99074.44;5129340;27;43132;-83
2022/10/16 12:48:35;;;;;;;1.03;1.00;;;;;;;33.51;38.74;99069.41;5130109;27;39757;-83
2022/10/16 12:51:11;;;;;;;1.20;1.10;;;;;;;33.63;38.20;99074.91;5113762;27;40667;-83
2022/10/16 12:53:39;;;;;;;1.73;1.07;;;;;;;33.21;39.01;99054.94;5113501;27;44071;-83
2022/10/16 12:56:21;;;;;;;1.10;1.00;;;;;;;32.68;39.68;99063.13;5131255;27;42456;-83
2022/10/16 12:59:02;;;;;;;1.30;1.20;;;;;;;33.07;39.37;99069.94;5130181;27;40002;-85
2022/10/16 13:01:42;;;;;;;1.30;1.10;;;;;;;33.63;39.08;99063.09;5113855;27;42109;-81
2022/10/16 13:04:52;;;;;;;1.30;1.10;;;;;;;33.22;39.76;99064.84;5130535;27;43567;-83
2022/10/16 13:07:37;;;;;;;2.07;1.10;;;;;;;32.54;39.77;99065.22;5145535;27;42265;-79
2022/10/16 13:10:23;;;;;;;1.43;1.00;;;;;;;31.32;41.37;99012.25;5114080;27;38955;-88
2022/10/16 13:13:15;;;;;;;1.40;1.23;;;;;;;30.87;43.17;99052.59;5131444;27;40667;-83
2022/10/16 13:15:55;;;;;;;1.23;0.90;;;;;;;30.41;44.25;99041.94;5130913;27;42861;-83
2022/10/16 13:18:31;;;;;;;1.80;1.03;;;;;;;29.95;45.52;99045.69;5128407;27;42533;-85
2022/10/16 13:21:12;;;;;;;2.30;1.50;;;;;;;30.30;45.44;99046.19;5113858;27;39218;-85
2022/10/16 13:23:48;;;;;;;2.70;1.67;;;;;;;31.68;43.93;99049.81;5129610;27;41972;-87
2022/10/16 13:26:27;;;;;;;3.83;1.03;;;;;;;31.49;42.80;99067.28;5128845;27;43736;-82
2022/10/16 13:29:00;;;;;;;4.97;1.50;;;;;;;32.91;41.78;99071.47;5128798;27;41950;-84
2022/10/16 13:31:29;;;;;;;2.33;1.30;;;;;;;33.48;39.65;99089.13;5130484;27;40131;-85
2022/10/16 13:34:00;;;;;;;1.87;1.07;;;;;;;32.67;40.43;99083.41;5133856;27;42103;-80
2022/10/16 13:36:30;;;;;;;2.80;1.10;;;;;;;31.74;42.11;99073.56;5134171;27;43035;-84
2022/10/16 13:39:08;;;;;;;4.70;1.40;;;;;;;31.03;43.48;99068.47;5133915;27;43486;-84
2022/10/16 13:41:36;;;;;;;1.53;1.07;;;;;;;30.41;43.66;99066.56;5131027;27;39758;-78
2022/10/16 13:44:12;;;;;;;1.20;1.10;;;;;;;29.75;45.28;99035.88;5116239;27;41274;-86
2022/10/16 13:46:40;;;;;;;2.83;1.20;;;;;;;29.46;46.05;99059.88;5133656;27;42186;-86
2022/10/16 13:49:14;;;;;;;1.30;1.20;;;;;;;29.08;47.20;99047.91;5133903;27;42911;-86
2022/10/16 13:51:42;;;;;;;1.57;1.33;;;;;;;28.76;48.17;99042.22;5130944;27;39940;-83
2022/10/16 13:54:12;;;;;;;1.40;1.10;;;;;;;28.43;47.87;99052.22;5133943;27;41766;-85
2022/10/16 13:56:41;;;;;;;1.17;1.07;;;;;;;28.02;49.46;99034.03;5116235;27;44108;-81
2022/10/16 13:59:25;;;;;;;1.53;1.10;;;;;;;27.88;50.40;99056.78;5133669;27;42589;-84
2022/10/16 14:01:57;;;;;;;1.40;1.03;;;;;;;27.59;49.15;99054.31;5130817;27;39826;-80
2022/10/16 14:04:26;;;;;;;1.53;1.03;;;;;;;27.39;49.97;99060.44;5116390;27;42831;-85
2022/10/16 14:06:54;;;;;;;1.37;1.23;;;;;;;27.15;50.90;99058.16;5116360;27;41753;-82
2022/10/16 14:09:26;;;;;;;1.30;1.00;;;;;;;26.76;51.34;99021.41;5133406;27;40918;-88
2022/10/16 14:12:00;;;;;;;2.00;1.73;;;;;;;26.89;51.88;99063.31;5133763;27;38487;-84
2022/10/16 14:14:35;;;;;;;1.83;1.00;;;;;;;26.76;52.66;99059.44;5134100;27;41476;-88
2022/10/16 14:17:04;;;;;;;1.70;1.20;;;;;;;26.70;53.07;99052.09;5130527;27;42765;-86
2022/10/16 14:19:32;;;;;;;3.63;1.20;;;;;;;26.64;53.91;99052.84;5133200;27;43993;-81
2022/10/16 14:22:02;;;;;;;0.83;0.83;;;;;;;26.58;54.62;99042.75;5116351;27;40347;-86
2022/10/16 14:24:33;;;;;;;4.43;0.70;;;;;;;26.50;55.80;99042.88;5134697;27;41747;-83
2022/10/16 14:27:02;;;;;;;2.60;1.40;;;;;;;26.46;55.98;99047.84;5116441;27;42459;-87
2022/10/16 14:29:32;;;;;;;1.60;1.27;;;;;;;26.45;55.00;99051.63;5134644;27;42211;-83
2022/10/16 14:32:02;;;;;;;2.57;1.10;;;;;;;26.41;55.73;99049.47;5134661;27;40938;-89
2022/10/16 14:34:32;;;;;;;1.47;1.10;;;;;;;26.29;56.76;99051.84;5133508;27;42004;-83
2022/10/16 14:37:06;;;;;;;1.40;1.27;;;;;;;26.00;57.11;99038.31;5116354;27;41607;-84
2022/10/16 14:39:35;;;;;;;1.00;1.00;;;;;;;25.99;57.52;99061.88;5133895;27;41982;-80
2022/10/16 14:42:03;;;;;;;0.80;0.80;;;;;;;25.73;57.79;99047.97;5133702;27;40864;-82
2022/10/16 14:44:34;;;;;;;1.30;1.20;;;;;;;25.33;58.69;99006.72;5120948;27;40653;-79
2022/10/16 14:47:10;;;;;;;1.20;1.00;;;;;;;25.57;59.00;99061.72;5137094;27;43785;-80
2022/10/16 14:49:38;;;;;;;0.97;0.97;;;;;;;25.30;59.38;99033.34;5121800;27;41280;-80
2022/10/16 14:52:11;;;;;;;2.83;1.10;;;;;;;25.34;59.40;99056.38;5140176;27;40182;-81
2022/10/16 14:54:39;;;;;;;2.27;1.53;;;;;;;25.09;59.61;99039.50;5138986;27;42924;-80
2022/10/16 14:57:18;;;;;;;1.70;1.50;;;;;;;24.91;59.99;99034.38;5138454;27;41398;-80
2022/10/16 14:59:48;;;;;;;1.47;1.37;;;;;;;24.73;60.50;99041.94;5133590;27;42433;-83
2022/10/16 15:02:24;;;;;;;1.33;1.20;;;;;;;24.65;60.90;99060.97;5115535;27;38455;-81
2022/10/16 15:04:51;;;;;;;1.37;1.17;;;;;;;24.31;60.51;99042.44;5132239;27;41776;-80
2022/10/16 15:07:19;;;;;;;1.17;1.07;;;;;;;24.31;61.35;99070.34;5132518;27;41756;-82
2022/10/16 15:09:48;;;;;;;1.20;1.00;;;;;;;23.88;61.41;99033.84;5132539;27;41289;-80
2022/10/16 15:12:16;;;;;;;1.50;1.17;;;;;;;24.05;62.06;99071.66;5115596;27;40251;-79
2022/10/16 15:14:44;;;;;;;1.70;1.40;;;;;;;23.92;62.43;99069.50;5115101;27;40737;-80
2022/10/16 15:17:13;;;;;;;2.27;1.70;;;;;;;23.79;62.99;99061.94;5132577;27;41926;-78
2022/10/16 15:19:40;;;;;;;2.33;2.13;;;;;;;23.66;63.17;99058.94;5132175;27;40911;-79
2022/10/16 15:22:12;;;;;;;1.47;1.37;;;;;;;23.40;63.33;99052.91;5132386;27;38987;-80
2022/10/16 15:24:39;;;;;;;3.20;1.90;;;;;;;23.27;64.06;99054.28;5132462;27;40631;-80
2022/10/16 15:27:07;;;;;;;1.90;1.80;;;;;;;23.28;64.69;99066.78;5131966;27;42889;-79
2022/10/16 15:29:35;;;;;;;3.40;1.87;;;;;;;23.22;64.56;99064.78;5132051;27;42147;-79
2022/10/16 15:32:02;;;;;;;3.87;2.00;;;;;;;23.17;64.54;99056.31;5132412;27;39714;-80
2022/10/16 15:34:32;;;;;;;2.87;2.40;;;;;;;23.10;65.46;99068.84;5132046;27;42558;-81
2022/10/16 15:37:04;;;;;;;3.63;2.30;;;;;;;23.03;65.84;99075.94;5114799;27;43053;-80
2022/10/16 15:39:31;;;;;;;4.53;2.30;;;;;;;22.95;65.41;99073.25;5132250;27;41958;-79
2022/10/16 15:41:59;;;;;;;2.27;1.97;;;;;;;22.91;65.94;99074.56;5132365;27;40107;-81
2022/10/16 15:44:30;;;;;;;3.17;1.97;;;;;;;22.79;66.11;99075.94;5131550;27;41875;-80
2022/10/16 15:46:57;;;;;;;3.77;2.30;;;;;;;22.64;66.68;99072.16;5132311;27;42517;-79
2022/10/16 15:49:25;;;;;;;2.50;2.00;;;;;;;22.45;67.37;99057.97;5114409;27;42434;-81
2022/10/16 15:51:54;;;;;;;5.30;1.97;;;;;;;22.37;67.38;99066.06;5115159;27;38996;-80
2022/10/16 15:54:22;;;;;;;2.30;2.10;;;;;;;22.33;67.77;99058.47;5130981;27;40753;-81
2022/10/16 15:56:50;;;;;;;4.03;2.00;;;;;;;22.19;68.93;99035.66;5131805;27;41740;-78
2022/10/16 15:59:21;;;;;;;4.87;1.80;;;;;;;22.16;68.87;99038.69;5130748;27;42155;-81
2022/10/16 16:01:49;;;;;;;2.23;1.67;;;;;;;22.19;69.26;99062.66;5114294;27;38644;-80
2022/10/16 16:04:17;;;;;;;2.23;1.70;;;;;;;22.11;69.01;99066.19;5114089;27;40749;-80
2022/10/16 16:06:45;;;;;;;3.07;2.03;;;;;;;21.86;69.63;99032.84;5114795;27;42910;-81
2022/10/16 16:09:15;;;;;;;5.30;1.73;;;;;;;22.05;70.29;99058.72;5114754;27;41212;-79
2022/10/16 16:11:43;;;;;;;1.73;1.60;;;;;;;22.05;70.35;99060.56;5114508;27;40072;-80
2022/10/16 16:14:14;;;;;;;3.13;1.97;;;;;;;21.79;70.74;99017.47;5131454;27;40876;-79
2022/10/16 16:16:42;;;;;;;2.93;1.70;;;;;;;21.97;70.73;99057.81;5131855;27;41716;-80
2022/10/16 16:19:10;;;;;;;2.33;1.60;;;;;;;21.94;71.06;99058.16;5114160;27;41972;-80
2022/10/16 16:21:38;;;;;;;2.23;1.70;;;;;;;21.80;70.76;99051.53;5114522;27;40857;-79
2022/10/16 16:24:07;;;;;;;2.87;1.57;;;;;;;21.75;70.59;99060.13;5131606;27;41663;-80
2022/10/16 16:26:39;;;;;;;4.70;1.60;;;;;;;21.75;71.45;99070.06;5131526;27;42048;-79
2022/10/16 16:29:08;;;;;;;2.23;1.73;;;;;;;21.73;71.62;99069.34;5129697;27;43198;-80
2022/10/16 16:31:35;;;;;;;2.60;1.50;;;;;;;21.69;71.05;99076.91;5131659;27;41152;-80
2022/10/16 16:34:03;;;;;;;2.87;2.00;;;;;;;21.57;70.99;99072.81;5131346;27;40393;-80
2022/10/16 16:36:31;;;;;;;1.80;1.60;;;;;;;21.50;70.87;99066.38;5131144;27;43924;-80
2022/10/16 16:39:00;;;;;;;2.00;1.53;;;;;;;21.49;70.39;99084.41;5132195;27;42289;-80
2022/10/16 16:41:30;;;;;;;2.00;1.53;;;;;;;21.51;70.66;99095.03;5131445;27;40209;-79
2022/10/16 16:44:05;;;;;;;2.40;2.00;;;;;;;21.44;71.10;99097.50;5130529;27;42835;-81
2022/10/16 16:46:34;;;;;;;1.73;1.63;;;;;;;21.33;70.89;99097.75;5129198;27;43390;-79
2022/10/16 16:49:02;;;;;;;1.70;1.60;;;;;;;21.20;71.31;99091.09;5132140;27;43175;-81
2022/10/16 16:51:30;;;;;;;4.00;1.70;;;;;;;21.11;71.07;99093.72;5113919;27;40244;-81
2022/10/16 16:53:58;;;;;;;2.03;1.80;;;;;;;21.10;71.25;99097.41;5130885;27;42210;-80
2022/10/16 16:56:26;;;;;;;1.43;1.30;;;;;;;21.06;70.82;99111.31;5113720;27;41713;-81
2022/10/16 16:58:56;;;;;;;3.30;2.10;;;;;;;20.86;71.26;99109.81;5130590;27;42555;-80
2022/10/16 17:01:27;;;;;;;3.23;2.57;;;;;;;20.84;71.26;99133.34;5130900;27;40180;-80
2022/10/16 17:03:59;;;;;;;3.83;3.10;;;;;;;20.71;71.47;99136.41;5130291;27;41843;-81
2022/10/16 17:06:29;;;;;;;3.07;2.70;;;;;;;20.60;71.21;99142.03;5130339;27;42698;-79
2022/10/16 17:08:57;;;;;;;3.00;2.70;;;;;;;20.53;71.63;99151.69;5134173;27;43978;-81
2022/10/16 17:11:27;;;;;;;8.30;3.20;;;;;;;20.31;71.69;99137.63;5135786;27;40117;-81
2022/10/16 17:13:57;;;;;;;2.60;2.40;;;;;;;20.15;72.13;99132.09;5134461;27;41836;-79
2022/10/16 17:16:29;;;;;;;2.90;2.30;;;;;;;20.21;72.20;99153.00;5135307;27;43001;-81
2022/10/16 17:19:00;;;;;;;2.27;2.13;;;;;;;20.08;72.16;99153.34;5133745;27;43161;-80
2022/10/16 17:21:29;;;;;;;2.47;2.23;;;;;;;19.69;71.95;99109.66;5131442;27;40965;-79
2022/10/16 17:23:57;;;;;;;2.87;2.43;;;;;;;19.84;72.23;99144.97;5116888;27;40901;-79
2022/10/16 17:26:25;;;;;;;2.60;2.40;;;;;;;19.75;72.57;99150.38;5134495;27;43768;-80
2022/10/16 17:28:54;;;;;;;2.77;2.30;;;;;;;19.76;73.04;99170.88;5135443;27;42243;-79
2022/10/16 17:31:24;;;;;;;2.63;2.43;;;;;;;19.67;73.32;99173.44;5134323;27;40770;-79
2022/10/16 17:33:53;;;;;;;2.83;2.63;;;;;;;19.51;73.40;99156.25;5133856;27;42232;-81
2022/10/16 17:36:22;;;;;;;3.37;2.90;;;;;;;19.44;73.42;99163.13;5116968;27;45085;-81
2022/10/16 17:38:50;;;;;;;2.80;2.60;;;;;;;19.45;73.96;99171.06;5116751;27;42654;-81
2022/10/16 17:41:20;;;;;;;2.93;2.60;;;;;;;19.40;73.67;99167.13;5135524;27;39901;-80
2022/10/16 17:43:49;;;;;;;3.33;2.40;;;;;;;19.06;75.40;99115.69;5133369;27;41790;-80
2022/10/16 17:46:19;;;;;;;2.80;2.60;;;;;;;19.27;75.08;99162.06;5133744;27;42950;-81
2022/10/16 17:48:49;;;;;;;2.77;2.57;;;;;;;19.22;75.24;99173.22;5131887;27;42391;-79
2022/10/16 17:51:20;;;;;;;2.63;2.43;;;;;;;19.06;75.11;99158.66;5116715;27;38980;-79
2022/10/16 17:53:49;;;;;;;2.63;2.43;;;;;;;19.09;74.66;99172.66;5134181;27;41731;-79
2022/10/16 17:56:17;;;;;;;3.10;2.53;;;;;;;19.05;75.07;99167.69;5133790;27;42753;-81
2022/10/16 17:58:48;;;;;;;2.60;2.40;;;;;;;18.67;75.63;99121.91;5116308;27;42515;-80
2022/10/16 18:01:18;;;;;;;4.57;2.50;;;;;;;18.94;75.50;99166.84;5130826;27;40216;-79
2022/10/16 18:03:50;;;;;;;3.50;2.30;;;;;;;18.78;75.57;99158.53;5134862;27;42750;-79
2022/10/16 18:06:19;;;;;;;2.80;2.20;;;;;;;18.85;75.56;99182.97;5130756;27;43185;-79
2022/10/16 18:08:47;;;;;;;2.60;2.40;;;;;;;18.76;74.97;99176.59;5134341;27;42288;-80
2022/10/16 18:11:15;;;;;;;2.57;2.07;;;;;;;18.63;76.11;99162.59;5116038;27;38964;-79
2022/10/16 18:13:42;;;;;;;3.63;3.33;;;;;;;18.59;76.50;99171.91;5134533;27;41975;-81
2022/10/16 18:16:12;;;;;;;5.00;4.40;;;;;;;18.60;76.81;99184.34;5115652;27;42269;-81
2022/10/16 18:18:43;;;;;;;4.63;3.80;;;;;;;18.55;77.26;99190.06;5134268;27;43221;-79
2022/10/16 18:21:14;;;;;;;4.90;3.93;;;;;;;18.51;77.80;99182.47;5133138;27;39227;-78
2022/10/16 18:23:44;;;;;;;3.40;3.10;;;;;;;18.48;77.22;99190.78;5133307;27;42459;-80
2022/10/16 18:26:14;;;;;;;3.27;2.93;;;;;;;18.30;78.03;99167.28;5111008;27;41704;-80
2022/10/16 18:28:42;;;;;;;3.07;2.70;;;;;;;18.41;78.67;99189.63;5131778;27;42719;-86
2022/10/16 18:31:13;;;;;;;2.93;2.17;;;;;;;18.35;79.93;99195.53;5132763;27;39279;-88
2022/10/16 18:33:46;;;;;;;2.27;2.07;;;;;;;18.34;80.18;99193.84;5114532;27;40679;-85
2022/10/16 18:36:15;;;;;;;2.97;2.53;;;;;;;18.29;80.02;99203.16;5123812;27;43575;-83
2022/10/16 18:38:44;;;;;;;2.47;2.20;;;;;;;18.26;79.35;99203.44;5114484;28;42193;-80
2022/10/16 18:41:12;;;;;;;3.47;2.03;;;;;;;18.23;79.01;99203.69;5146732;27;39956;-80
2022/10/16 18:43:40;;;;;;;2.07;1.97;;;;;;;18.13;79.02;99194.75;5133339;27;40703;-81
2022/10/16 18:46:10;;;;;;;2.50;2.30;;;;;;;18.13;78.66;99197.44;5126517;27;44622;-82
2022/10/16 18:48:39;;;;;;;2.40;2.20;;;;;;;18.09;78.64;99201.38;5111994;28;42976;-80
2022/10/16 18:51:11;;;;;;;2.77;2.57;;;;;;;18.03;78.36;99204.59;5145213;27;38933;-81
2022/10/16 18:53:41;;;;;;;2.43;2.23;;;;;;;17.99;78.16;99200.47;5147439;27;41001;-83
2022/10/16 18:56:11;;;;;;;3.37;2.20;;;;;;;17.86;77.91;99198.03;5146523;27;42740;-82
2022/10/16 18:58:40;;;;;;;2.40;2.20;;;;;;;17.90;77.96;99209.34;5135553;27;41078;-84
2022/10/16 19:01:09;;;;;;;2.20;2.00;;;;;;;17.72;78.02;99189.47;5146754;27;39885;-83
2022/10/16 19:03:37;;;;;;;2.93;2.10;;;;;;;17.70;77.83;99197.66;5133511;27;41706;-88
2022/10/16 19:06:08;;;;;;;3.03;2.40;;;;;;;17.74;77.70;99217.00;5148358;27;43110;-81
2022/10/16 19:08:37;;;;;;;3.43;2.33;;;;;;;17.44;78.06;99173.06;5135498;27;44468;-81
2022/10/16 19:11:06;;;;;;;2.80;2.60;;;;;;;17.50;77.68;99187.78;5129689;27;39869;-84
2022/10/16 19:13:36;;;;;;;2.73;2.53;;;;;;;17.58;77.93;99218.28;5153825;27;42715;-81
2022/10/16 19:16:04;;;;;;;3.43;3.13;;;;;;;17.51;77.93;99211.75;5134997;27;43323;-78
2022/10/16 19:18:37;;;;;;;3.43;3.10;;;;;;;17.51;78.46;99217.09;5123798;27;42153;-77
2022/10/16 19:21:05;;;;;;;3.90;3.50;;;;;;;17.45;78.92;99216.75;5142698;27;39757;-82
2022/10/16 19:23:33;;;;;;;4.37;3.00;;;;;;;17.45;78.54;99227.47;5154797;27;41754;-85
2022/10/16 19:26:03;;;;;;;3.70;3.33;;;;;;;17.35;78.91;99215.84;5119263;27;42744;-84
2022/10/16 19:28:31;;;;;;;4.30;3.20;;;;;;;17.41;78.39;99226.91;5094267;28;42583;-88
2022/10/16 19:31:03;;;;;;;3.67;3.17;;;;;;;17.39;78.49;99228.84;5128252;27;39802;-80
2022/10/16 19:33:31;;;;;;;2.90;2.70;;;;;;;17.35;78.56;99227.41;5136968;27;41285;-80
2022/10/16 19:36:08;;;;;;;3.27;2.97;;;;;;;17.30;78.79;99232.31;5154268;27;42888;-86
2022/10/16 19:38:35;;;;;;;2.73;2.50;;;;;;;17.30;79.02;99228.78;5124243;27;41438;-79
2022/10/16 19:41:07;;;;;;;4.97;3.60;;;;;;;16.97;79.25;99184.28;5145164;27;40970;-82
2022/10/16 19:43:35;;;;;;;3.10;2.80;;;;;;;17.25;79.53;99231.84;5136203;27;40439;-87
2022/10/16 19:46:06;;;;;;;2.43;2.23;;;;;;;17.23;79.35;99234.66;5134425;27;43107;-84
2022/10/16 19:48:34;;;;;;;2.60;2.40;;;;;;;17.19;79.13;99232.34;5108919;28;42213;-88
2022/10/16 19:51:02;;;;;;;2.80;2.60;;;;;;;17.18;79.22;99241.38;5125488;27;41040;-87
2022/10/16 19:53:31;;;;;;;2.33;2.13;;;;;;;16.84;79.22;99196.00;5124090;27;40934;-82
2022/10/16 19:55:59;;;;;;;2.80;2.60;;;;;;;17.12;79.27;99245.41;5146988;27;42828;-82
2022/10/16 19:58:27;;;;;;;2.70;2.50;;;;;;;17.09;79.13;99250.16;5126174;27;42353;-83
2022/10/16 20:00:55;;;;;;;6.43;3.80;;;;;;;16.95;79.39;99237.06;5110371;28;39885;-88
2022/10/16 20:03:24;;;;;;;3.47;3.17;;;;;;;17.03;79.20;99258.69;5110898;28;40892;-85
2022/10/16 20:05:53;;;;;;;4.50;3.63;;;;;;;17.00;79.27;99258.94;5093681;28;42094;-89
2022/10/16 20:08:21;;;;;;;4.47;4.07;;;;;;;16.97;79.46;99259.19;5110847;28;41069;-87
2022/10/16 20:10:50;;;;;;;5.10;4.27;;;;;;;16.94;79.75;99265.63;5110808;28;41179;-85
2022/10/16 20:13:19;;;;;;;5.30;4.80;;;;;;;16.93;79.69;99263.13;5112166;28;41776;-84
2022/10/16 20:15:47;;;;;;;5.03;3.97;;;;;;;16.86;79.77;99258.25;5111617;28;42048;-85
2022/10/16 20:18:15;;;;;;;4.93;3.40;;;;;;;16.84;79.99;99254.00;5094821;28;41103;-86
2022/10/16 20:20:47;;;;;;;3.50;3.20;;;;;;;16.68;80.05;99237.53;5113069;28;39908;-83
2022/10/16 20:23:15;;;;;;;4.60;3.43;;;;;;;16.84;80.19;99270.03;5110525;28;42944;-83
2022/10/16 20:25:43;;;;;;;3.70;3.23;;;;;;;16.83;80.09;99265.66;5112746;28;42864;-81
2022/10/16 20:28:13;;;;;;;3.67;3.37;;;;;;;16.80;79.81;99274.81;5094790;28;41096;-82
2022/10/16 20:30:43;;;;;;;3.43;2.50;;;;;;;16.78;79.89;99271.41;5112895;28;39970;-83
2022/10/16 20:33:11;;;;;;;3.63;3.27;;;;;;;16.75;79.94;99279.69;5111885;28;43180;-84
2022/10/16 20:35:41;;;;;;;3.90;3.50;;;;;;;16.69;80.27;99271.31;5112670;28;42928;-88
2022/10/16 20:38:12;;;;;;;4.20;3.43;;;;;;;16.72;80.20;99277.25;5109890;28;41408;-85
2022/10/16 20:40:41;;;;;;;3.80;3.50;;;;;;;16.65;80.11;99276.06;5110378;28;41685;-82
2022/10/16 20:43:12;;;;;;;3.13;2.83;;;;;;;16.66;80.19;99285.78;5110692;28;42650;-82